Hauptseite
METAR-TAF:

METAR-TAF

Flughäfen :

Flughafen Kefalonia

Kefalonia, Griechenland

Breite: 38-07N, Länge: 020-30E, Höhe: 19 m

Beobachtung

Neuester Wetterbericht von vor 4 Stunden und 50 Minuten, um 11:50 UTC
Wind 6 kt aus Süd
Temperatur 17°C
Luftfeuchtigkeit 77%
Luftdruck 1019 hPa
Sichtweite 10 km oder mehr
Aufgelockert bewölkt in der Höhe von 1800 ft

METAR: LGKF 251150Z 18006KT 9999 SCT018 17/13 Q1019

Zeit: 18:40 (16:40 UTC)

Prognose

Neuester Wetterbericht von vor 2 Stunden und 40 Minuten, um 14:00 UTC
Gültige Prognose vom 25 um 15 UTC bis 25 um 24 UTC
Wind 8 kt aus Süd
Sichtweite 10 km oder mehr
Aufgelockert bewölkt in der Höhe von 1800 ft

TAF: LGKF 251400Z 2515/2524 18008KT 9999 SCT018

Wetterbeobachtungen und Prognosen von mehr als 4000 Flughäfen (METAR und TAF Bericht).

Die verfügbaren Stationen werden durch gelbe und rote Markierungen auf der Karte dargestellt.

Führen Sie die Maus auf sie, um den Namen der Station zu sehen.

Darauf klicken, um die Beobachtung von Wetterbeobachtungen und Prognosen zu sehen.

Um die Karte zu ändern : klicken Sie auf den grünen Tasten mit einem schwarzen Kreuz Zum Vergrößern, auf den grünen Button mit einem Gedankenstrich zu verkleinern, oder auf die grünen Pfeile für benachbarte Karten.


METAR-TAF: